Time;durP1;ratioP1;P1;durP2;ratioP2;P2;SDS_P1;SDS_P2;PMS_P1;PMS_P2;Temp;Humidity;BMP_temperature;BMP_pressure;BME280_temperature;BME280_humidity;BME280_pressure;Samples;Min_cycle;Max_cycle;Signal;HPM_P1;HPM_P2
2021/11/03 00:01:31;;;;;;;19.77;3.80;;;14.30;99.90;;;;;;5035176;28;20433;-70
2021/11/03 00:04:00;;;;;;;23.23;4.00;;;14.30;99.90;;;;;;5035239;28;20026;-70
2021/11/03 00:06:26;;;;;;;28.13;4.47;;;14.30;99.90;;;;;;5035203;28;20030;-70
2021/11/03 00:08:52;;;;;;;26.23;3.90;;;14.30;99.90;;;;;;5034844;28;20597;-70
2021/11/03 00:11:18;;;;;;;18.35;3.25;;;14.40;99.90;;;;;;5034740;28;20064;-70
2021/11/03 00:13:44;;;;;;;24.92;3.95;;;14.40;99.90;;;;;;5034956;28;20037;-70
2021/11/03 00:16:10;;;;;;;17.45;3.75;;;14.30;99.90;;;;;;5034895;28;20030;-70
2021/11/03 00:18:35;;;;;;;23.13;3.80;;;14.40;99.90;;;;;;5035064;28;20577;-70
2021/11/03 00:21:03;;;;;;;23.33;4.10;;;14.40;99.90;;;;;;5032037;28;20129;-70
2021/11/03 00:23:29;;;;;;;21.90;3.90;;;14.50;99.90;;;;;;5034859;28;20371;-70
2021/11/03 00:25:55;;;;;;;27.95;4.05;;;14.50;99.90;;;;;;5034572;28;20042;-70
2021/11/03 00:28:23;;;;;;;21.40;3.72;;;14.50;99.90;;;;;;5034794;28;20188;-70
2021/11/03 00:30:51;;;;;;;16.23;3.40;;;14.50;99.90;;;;;;5034631;28;20160;-70
2021/11/03 00:33:19;;;;;;;23.05;3.58;;;14.50;99.90;;;;;;5034310;28;20045;-70
2021/11/03 00:35:44;;;;;;;23.30;3.50;;;14.50;99.90;;;;;;5034334;28;20034;-70
2021/11/03 00:38:10;;;;;;;21.70;3.08;;;14.50;99.90;;;;;;5029138;28;20466;-70
2021/11/03 00:40:36;;;;;;;22.17;3.78;;;14.40;99.90;;;;;;5031404;28;20029;-70
2021/11/03 00:43:03;;;;;;;18.88;3.65;;;14.40;99.90;;;;;;5034732;28;20057;-70
2021/11/03 00:45:29;;;;;;;18.50;4.00;;;14.30;99.90;;;;;;5034641;28;20037;-71
2021/11/03 00:47:55;;;;;;;19.80;3.88;;;14.30;99.90;;;;;;5034297;28;20041;-70
2021/11/03 00:50:21;;;;;;;24.10;3.78;;;14.30;99.90;;;;;;5034284;28;20048;-70
2021/11/03 00:52:48;;;;;;;24.15;3.90;;;14.30;99.90;;;;;;5034362;28;20057;-70
2021/11/03 00:55:14;;;;;;;17.13;3.20;;;14.30;99.90;;;;;;5034252;28;20037;-71
2021/11/03 00:57:40;;;;;;;22.80;3.70;;;14.30;99.90;;;;;;5033902;28;20087;-70
2021/11/03 01:00:07;;;;;;;21.13;3.50;;;14.30;99.90;;;;;;5033968;28;20466;-70
2021/11/03 01:02:33;;;;;;;13.07;3.10;;;14.20;99.90;;;;;;5033526;28;20445;-70
2021/11/03 01:04:59;;;;;;;21.70;2.88;;;14.20;99.90;;;;;;5016586;28;20087;-70
2021/11/03 01:07:25;;;;;;;28.02;3.13;;;14.20;99.90;;;;;;5034117;28;20033;-70
2021/11/03 01:09:51;;;;;;;25.33;3.75;;;14.20;99.90;;;;;;5033174;28;20069;-70
2021/11/03 01:12:16;;;;;;;21.60;3.25;;;14.20;99.90;;;;;;5033551;28;20034;-70
2021/11/03 01:14:43;;;;;;;15.07;3.30;;;14.20;99.90;;;;;;5033431;28;20052;-70
2021/11/03 01:17:08;;;;;;;20.00;3.65;;;14.10;99.90;;;;;;5033880;28;20410;-69
2021/11/03 01:19:34;;;;;;;24.77;4.28;;;14.10;99.90;;;;;;5033607;28;20039;-70
2021/11/03 01:22:00;;;;;;;21.33;4.05;;;14.10;99.90;;;;;;5015809;28;20044;-70
2021/11/03 01:24:26;;;;;;;13.13;2.85;;;14.00;99.90;;;;;;5015696;28;20108;-70
2021/11/03 01:26:52;;;;;;;22.50;3.28;;;14.00;99.90;;;;;;5033311;28;20509;-70
2021/11/03 01:29:18;;;;;;;29.30;4.43;;;14.00;99.90;;;;;;5032487;28;20037;-71
2021/11/03 01:31:43;;;;;;;28.90;3.78;;;14.00;99.90;;;;;;5032835;28;20029;-70
2021/11/03 01:34:09;;;;;;;21.38;3.17;;;14.00;99.90;;;;;;5033171;28;20018;-70
2021/11/03 01:36:35;;;;;;;24.02;3.78;;;14.00;99.90;;;;;;5032803;28;20057;-71
2021/11/03 01:39:02;;;;;;;13.27;3.15;;;14.00;99.90;;;;;;5028934;28;20101;-70
2021/11/03 01:41:28;;;;;;;25.73;3.42;;;13.90;99.90;;;;;;5033484;28;20037;-71
2021/11/03 01:44:11;;;;;;;19.05;3.60;;;13.90;99.90;;;;;;5033303;28;20052;-70
2021/11/03 01:46:44;;;;;;;26.02;4.57;;;13.90;99.90;;;;;;5033573;28;20401;-70
2021/11/03 01:49:23;;;;;;;29.40;4.28;;;13.90;99.90;;;;;;5032471;28;20072;-71
2021/11/03 01:52:07;;;;;;;25.77;5.60;;;13.80;99.90;;;;;;5030619;28;20057;-71
2021/11/03 01:54:44;;;;;;;24.95;3.83;;;13.90;99.90;;;;;;5018154;28;20037;-70
2021/11/03 01:57:13;;;;;;;17.15;3.08;;;13.90;99.90;;;;;;5032811;28;20037;-71
2021/11/03 01:59:43;;;;;;;15.65;2.75;;;13.90;99.90;;;;;;5019797;28;20033;-70
2021/11/03 02:02:10;;;;;;;15.75;3.53;;;13.90;99.90;;;;;;5032506;28;20037;-70
2021/11/03 02:04:36;;;;;;;15.13;2.80;;;13.80;99.90;;;;;;5032973;28;20034;-70
2021/11/03 02:07:08;;;;;;;14.95;2.85;;;13.80;99.90;;;;;;5033050;28;20030;-70
2021/11/03 02:09:34;;;;;;;12.90;3.15;;;13.70;99.90;;;;;;5026680;28;20045;-70
2021/11/03 02:11:59;;;;;;;15.77;2.88;;;13.70;99.90;;;;;;5032201;28;20078;-70
2021/11/03 02:14:25;;;;;;;23.60;3.58;;;13.70;99.90;;;;;;5032631;28;20038;-70
2021/11/03 02:16:52;;;;;;;21.35;4.00;;;13.70;99.90;;;;;;5032757;28;20087;-70
2021/11/03 02:19:28;;;;;;;14.45;3.08;;;13.70;99.90;;;;;;5032722;28;20051;-70
2021/11/03 02:22:21;;;;;;;23.77;3.22;;;13.70;99.90;;;;;;5032252;28;20482;-68
2021/11/03 02:25:07;;;;;;;17.42;2.88;;;13.70;99.90;;;;;;5032348;28;20108;-70
2021/11/03 02:27:38;;;;;;;23.20;3.63;;;13.70;99.90;;;;;;5014476;28;20125;-69
2021/11/03 02:30:06;;;;;;;33.55;3.42;;;13.70;99.90;;;;;;5032453;28;20096;-70
2021/11/03 02:32:33;;;;;;;23.13;3.65;;;13.60;99.90;;;;;;5014210;28;20112;-70
2021/11/03 02:34:59;;;;;;;27.30;3.75;;;13.60;99.90;;;;;;5032219;28;20037;-70
2021/11/03 02:37:28;;;;;;;23.50;3.75;;;13.60;99.90;;;;;;5032207;28;20034;-70
2021/11/03 02:40:25;;;;;;;24.95;3.30;;;13.60;99.90;;;;;;5030364;28;20041;-70
2021/11/03 02:42:57;;;;;;;21.50;3.22;;;13.60;99.90;;;;;;5001140;28;20486;-70
2021/11/03 02:45:43;;;;;;;12.75;3.35;;;13.60;99.90;;;;;;5032279;28;20037;-70
2021/11/03 02:48:09;;;;;;;22.73;3.83;;;13.70;99.90;;;;;;5032284;28;20104;-70
2021/11/03 02:50:35;;;;;;;17.05;3.05;;;13.60;99.90;;;;;;5031867;28;20378;-70
2021/11/03 02:53:01;;;;;;;15.45;3.25;;;13.60;99.90;;;;;;5014256;28;20458;-70
2021/11/03 02:55:27;;;;;;;22.10;3.80;;;13.60;99.90;;;;;;5031841;28;20425;-70
2021/11/03 02:57:53;;;;;;;19.27;3.53;;;13.60;99.90;;;;;;5031867;28;20100;-70
2021/11/03 03:00:21;;;;;;;21.50;3.38;;;13.60;99.90;;;;;;5031106;28;20038;-70
2021/11/03 03:02:47;;;;;;;18.00;3.13;;;13.60;99.90;;;;;;5031712;28;20034;-70
2021/11/03 03:05:13;;;;;;;13.60;3.00;;;13.60;99.90;;;;;;5036022;28;20079;-70
2021/11/03 03:07:39;;;;;;;19.75;3.63;;;13.60;99.90;;;;;;5036023;28;20116;-70
2021/11/03 03:10:06;;;;;;;29.95;4.63;;;13.50;99.90;;;;;;5036004;28;20049;-70
2021/11/03 03:12:33;;;;;;;14.13;2.83;;;13.50;99.90;;;;;;5035793;28;20051;-71
2021/11/03 03:14:59;;;;;;;23.52;3.50;;;13.50;99.90;;;;;;5036078;28;20024;-71
2021/11/03 03:17:25;;;;;;;25.20;3.42;;;13.50;99.90;;;;;;5034155;28;20086;-70
2021/11/03 03:19:51;;;;;;;30.38;3.40;;;13.50;99.90;;;;;;5035983;28;20049;-71
2021/11/03 03:22:19;;;;;;;23.92;3.22;;;13.50;99.90;;;;;;5036144;28;20030;-71
2021/11/03 03:24:46;;;;;;;26.90;5.32;;;13.50;99.90;;;;;;5035675;28;20390;-70
2021/11/03 03:27:12;;;;;;;16.20;3.08;;;13.60;99.90;;;;;;5035657;28;20042;-71
2021/11/03 03:29:39;;;;;;;18.10;3.45;;;13.50;99.90;;;;;;5035764;28;20486;-70
2021/11/03 03:32:06;;;;;;;26.88;3.38;;;13.50;99.90;;;;;;5033082;28;20036;-70
2021/11/03 03:34:33;;;;;;;17.23;2.88;;;13.50;99.90;;;;;;5035546;28;20035;-70
2021/11/03 03:36:59;;;;;;;18.65;3.28;;;13.50;99.90;;;;;;5035293;28;20030;-70
2021/11/03 03:39:26;;;;;;;31.65;5.10;;;13.50;99.90;;;;;;5035560;28;20474;-70
2021/11/03 03:42:00;;;;;;;16.92;3.08;;;13.40;99.90;;;;;;5035389;28;20038;-70
2021/11/03 03:44:25;;;;;;;20.33;2.70;;;13.50;99.90;;;;;;5035427;28;20087;-70
2021/11/03 03:46:51;;;;;;;22.10;3.45;;;13.40;99.90;;;;;;5035236;28;20502;-70
2021/11/03 03:49:18;;;;;;;21.08;3.35;;;13.40;99.90;;;;;;5017010;28;20041;-70
2021/11/03 03:51:43;;;;;;;19.10;3.30;;;13.50;99.90;;;;;;5017474;28;20038;-70
2021/11/03 03:54:09;;;;;;;20.58;3.75;;;13.50;99.90;;;;;;5022303;28;20059;-71
2021/11/03 03:56:35;;;;;;;16.45;3.45;;;13.50;99.90;;;;;;5035257;28;20112;-70
2021/11/03 03:59:00;;;;;;;28.15;3.00;;;13.50;99.90;;;;;;5034548;28;20045;-70
2021/11/03 04:01:27;;;;;;;28.30;3.75;;;13.50;99.90;;;;;;5028452;28;20097;-70
2021/11/03 04:03:54;;;;;;;17.40;2.97;;;13.50;99.90;;;;;;5034907;28;20033;-69
2021/11/03 04:06:20;;;;;;;21.40;3.85;;;13.50;99.90;;;;;;5020102;28;20083;-70
2021/11/03 04:08:46;;;;;;;14.57;2.55;;;13.60;99.90;;;;;;5034860;28;20128;-69
2021/11/03 04:11:13;;;;;;;14.60;2.90;;;13.60;99.90;;;;;;5014133;28;20533;-70
2021/11/03 04:13:39;;;;;;;17.88;3.70;;;13.70;99.90;;;;;;5034287;28;20033;-70
2021/11/03 04:16:05;;;;;;;24.85;4.22;;;13.70;99.90;;;;;;5033330;28;20032;-70
2021/11/03 04:18:31;;;;;;;25.02;3.80;;;13.70;99.90;;;;;;5034399;28;20033;-70
2021/11/03 04:20:57;;;;;;;26.48;3.80;;;13.70;99.90;;;;;;5034769;28;20385;-70
2021/11/03 04:23:23;;;;;;;41.25;4.20;;;13.70;99.90;;;;;;5034617;28;20120;-70
2021/11/03 04:25:49;;;;;;;25.80;2.58;;;13.70;99.90;;;;;;5034183;28;20044;-69
2021/11/03 04:28:15;;;;;;;25.00;3.70;;;13.70;99.90;;;;;;5034756;28;20120;-70
2021/11/03 04:30:42;;;;;;;22.35;3.58;;;13.80;99.90;;;;;;5034571;28;20025;-70
2021/11/03 04:33:08;;;;;;;20.15;3.55;;;13.90;99.90;;;;;;5034341;28;20107;-70
2021/11/03 04:35:35;;;;;;;18.33;2.95;;;13.90;99.90;;;;;;5034284;28;20108;-70
2021/11/03 04:38:00;;;;;;;24.70;3.10;;;13.90;99.90;;;;;;5034824;28;20045;-70
2021/11/03 04:40:28;;;;;;;19.17;3.47;;;13.90;99.90;;;;;;5034606;28;20061;-70
2021/11/03 04:42:55;;;;;;;29.35;3.65;;;13.90;99.90;;;;;;5034360;28;20371;-70
2021/11/03 04:45:21;;;;;;;14.75;2.85;;;13.90;99.90;;;;;;5033955;28;20052;-70
2021/11/03 04:47:47;;;;;;;30.15;4.38;;;13.90;99.90;;;;;;5034145;28;20377;-70
2021/11/03 04:50:18;;;;;;;28.70;3.60;;;13.90;99.90;;;;;;5033956;28;20034;-69
2021/11/03 04:52:43;;;;;;;19.60;3.58;;;13.90;99.90;;;;;;5032971;28;20034;-70
2021/11/03 04:55:09;;;;;;;17.10;2.70;;;13.80;99.90;;;;;;5032942;28;20084;-70
2021/11/03 04:57:35;;;;;;;28.05;3.47;;;13.80;99.90;;;;;;5033629;28;20017;-70
2021/11/03 05:00:06;;;;;;;20.25;4.22;;;13.80;99.90;;;;;;5034163;28;20529;-70
2021/11/03 05:02:32;;;;;;;32.10;3.55;;;13.90;99.90;;;;;;5016526;28;20389;-70
2021/11/03 05:04:58;;;;;;;23.05;3.92;;;13.90;99.90;;;;;;5033601;28;20097;-71
2021/11/03 05:07:24;;;;;;;22.77;3.97;;;13.90;99.90;;;;;;5033609;28;20040;-70
2021/11/03 05:09:49;;;;;;;13.57;3.05;;;13.90;99.90;;;;;;5033317;28;20033;-70
2021/11/03 05:12:15;;;;;;;27.33;4.03;;;13.90;99.90;;;;;;5033855;28;20501;-70
2021/11/03 05:14:41;;;;;;;21.35;3.67;;;13.80;99.90;;;;;;5033605;28;20129;-69
2021/11/03 05:17:06;;;;;;;23.45;3.58;;;13.80;99.90;;;;;;5032489;28;20116;-70
2021/11/03 05:19:33;;;;;;;21.80;3.10;;;13.80;99.90;;;;;;5033559;28;20045;-70
2021/11/03 05:22:00;;;;;;;22.98;3.60;;;13.80;99.90;;;;;;5032762;28;20036;-70
2021/11/03 05:24:26;;;;;;;30.42;4.80;;;13.80;99.90;;;;;;5024921;28;20038;-70
2021/11/03 05:26:53;;;;;;;22.88;3.30;;;13.80;99.90;;;;;;5032646;28;20112;-70
2021/11/03 05:29:19;;;;;;;27.67;3.88;;;13.80;99.90;;;;;;5033768;28;20163;-70
2021/11/03 05:31:45;;;;;;;19.42;2.97;;;13.90;99.90;;;;;;5032022;28;20030;-71
2021/11/03 05:34:11;;;;;;;28.27;3.17;;;13.90;99.90;;;;;;5032989;28;20036;-70
2021/11/03 05:36:38;;;;;;;24.67;3.20;;;13.90;99.90;;;;;;5032566;28;20103;-70
2021/11/03 05:39:08;;;;;;;24.75;3.42;;;13.90;99.90;;;;;;5032427;28;20040;-70
2021/11/03 05:41:38;;;;;;;26.77;4.57;;;14.00;99.90;;;;;;5033367;28;20087;-70
2021/11/03 05:44:09;;;;;;;23.83;3.05;;;13.90;99.90;;;;;;5033145;28;20025;-70
2021/11/03 05:46:40;;;;;;;27.23;2.90;;;14.00;99.90;;;;;;5031380;28;20033;-70
2021/11/03 05:49:09;;;;;;;20.92;3.33;;;14.00;99.90;;;;;;5030481;28;20049;-71
2021/11/03 05:51:36;;;;;;;22.02;3.40;;;13.90;99.90;;;;;;5032280;28;20037;-71
2021/11/03 05:54:03;;;;;;;25.00;3.90;;;14.00;99.90;;;;;;5032660;28;20037;-70
2021/11/03 05:56:30;;;;;;;26.10;3.17;;;14.00;99.90;;;;;;5033100;28;20030;-70
2021/11/03 05:58:56;;;;;;;21.02;3.40;;;14.00;99.90;;;;;;5032079;28;20033;-70
2021/11/03 06:01:22;;;;;;;24.48;3.05;;;14.10;99.90;;;;;;5027138;28;20040;-70
2021/11/03 06:03:48;;;;;;;19.13;3.42;;;14.10;99.90;;;;;;5032881;28;20037;-70
2021/11/03 06:06:14;;;;;;;21.73;3.95;;;14.20;99.90;;;;;;5032449;28;20033;-70
2021/11/03 06:08:40;;;;;;;28.13;3.40;;;14.20;99.90;;;;;;5031894;28;20076;-70
2021/11/03 06:11:07;;;;;;;17.05;3.17;;;14.30;99.90;;;;;;5032553;28;20434;-70
2021/11/03 06:13:33;;;;;;;20.90;3.22;;;14.30;99.90;;;;;;5032409;28;20064;-70
2021/11/03 06:15:59;;;;;;;24.33;3.75;;;14.40;99.90;;;;;;5032915;28;20088;-69
2021/11/03 06:18:24;;;;;;;20.85;4.22;;;14.50;99.90;;;;;;5032494;28;20057;-70
2021/11/03 06:20:53;;;;;;;19.58;3.25;;;14.50;99.90;;;;;;5029443;28;20037;-70
2021/11/03 06:23:18;;;;;;;23.85;4.47;;;14.50;99.90;;;;;;5032280;28;20041;-70
2021/11/03 06:25:44;;;;;;;18.83;3.17;;;14.70;99.90;;;;;;5032750;28;20024;-70
2021/11/03 06:28:10;;;;;;;18.55;3.53;;;14.80;99.90;;;;;;5032165;28;20048;-70
2021/11/03 06:30:37;;;;;;;26.67;3.55;;;15.00;99.90;;;;;;5013266;28;20045;-70
2021/11/03 06:33:04;;;;;;;35.28;4.95;;;15.40;99.90;;;;;;5015027;28;20025;-69
2021/11/03 06:35:31;;;;;;;25.63;4.45;;;15.70;99.90;;;;;;5032645;28;20103;-70
2021/11/03 06:37:57;;;;;;;21.52;4.32;;;15.80;99.90;;;;;;5032617;28;20133;-70
2021/11/03 06:40:25;;;;;;;23.48;3.60;;;15.80;99.90;;;;;;5032165;28;20029;-69
2021/11/03 06:42:51;;;;;;;31.23;3.95;;;15.80;99.90;;;;;;5032190;28;20029;-69
2021/11/03 06:45:18;;;;;;;33.85;3.00;;;15.90;99.90;;;;;;5014616;28;20049;-69
2021/11/03 06:47:45;;;;;;;17.60;3.75;;;15.80;99.90;;;;;;5032161;28;20032;-70
2021/11/03 06:50:13;;;;;;;23.33;3.58;;;15.70;99.90;;;;;;5032045;28;20041;-69
2021/11/03 06:52:40;;;;;;;20.10;3.92;;;15.60;99.90;;;;;;5032122;28;20532;-69
2021/11/03 06:55:07;;;;;;;29.23;4.80;;;15.60;99.90;;;;;;5032381;28;20126;-70
2021/11/03 06:57:32;;;;;;;37.78;4.03;;;15.70;99.90;;;;;;5014781;28;20120;-70
2021/11/03 06:59:59;;;;;;;36.13;3.28;;;15.90;99.90;;;;;;5032294;28;20159;-70
2021/11/03 07:02:25;;;;;;;22.35;4.20;;;16.00;99.90;;;;;;5021469;28;20490;-70
2021/11/03 07:04:50;;;;;;;20.08;3.42;;;16.20;99.90;;;;;;5031724;28;20060;-71
2021/11/03 07:07:16;;;;;;;14.77;3.58;;;16.40;99.90;;;;;;5032416;28;20021;-70
2021/11/03 07:09:42;;;;;;;28.52;4.55;;;16.50;99.90;;;;;;5031451;28;20042;-70
2021/11/03 07:12:08;;;;;;;19.77;2.47;;;16.50;99.90;;;;;;5014429;28;20030;-69
2021/11/03 07:14:33;;;;;;;29.50;3.97;;;16.50;99.90;;;;;;5032409;28;20030;-69
2021/11/03 07:16:59;;;;;;;29.48;3.95;;;16.40;99.90;;;;;;5032326;28;20033;-70
2021/11/03 07:19:25;;;;;;;20.40;3.30;;;16.40;99.90;;;;;;5032348;28;20099;-70
2021/11/03 07:21:50;;;;;;;21.33;3.40;;;16.30;99.90;;;;;;5031811;28;20091;-70
2021/11/03 07:24:17;;;;;;;24.58;3.72;;;16.30;99.90;;;;;;5031672;28;20049;-70
2021/11/03 07:26:44;;;;;;;15.05;3.22;;;16.50;99.90;;;;;;5031370;28;20120;-70
2021/11/03 07:29:11;;;;;;;22.30;3.80;;;16.60;99.90;;;;;;5031677;28;20557;-70
2021/11/03 07:31:37;;;;;;;19.70;3.58;;;16.70;99.90;;;;;;5031182;28;20513;-70
2021/11/03 07:34:03;;;;;;;16.65;3.17;;;16.70;99.90;;;;;;5031054;28;20025;-70
2021/11/03 07:36:32;;;;;;;16.98;3.33;;;16.70;99.90;;;;;;5031341;28;20042;-69
2021/11/03 07:38:58;;;;;;;22.42;3.65;;;16.80;99.90;;;;;;5031659;28;20083;-71
2021/11/03 07:41:23;;;;;;;20.52;3.85;;;16.80;99.90;;;;;;5030062;28;20120;-70
2021/11/03 07:43:50;;;;;;;22.02;4.35;;;16.80;99.90;;;;;;5031622;28;20061;-70
2021/11/03 07:46:17;;;;;;;21.27;4.50;;;16.90;99.90;;;;;;5026991;28;20072;-70
2021/11/03 07:48:43;;;;;;;24.08;3.72;;;16.90;99.90;;;;;;5032486;28;20030;-71
2021/11/03 07:51:12;;;;;;;22.08;4.28;;;16.90;99.90;;;;;;5033608;28;20709;-71
2021/11/03 07:53:38;;;;;;;20.02;3.83;;;16.90;99.90;;;;;;5034850;28;20455;-71
2021/11/03 07:56:07;;;;;;;26.13;5.63;;;17.00;99.90;;;;;;5034862;28;20030;-71
2021/11/03 07:58:36;;;;;;;17.45;4.00;;;17.10;99.90;;;;;;5035328;28;20076;-71
2021/11/03 08:01:03;;;;;;;22.48;4.28;;;17.20;99.90;;;;;;5033643;28;20022;-71
2021/11/03 08:03:28;;;;;;;20.80;3.80;;;17.30;99.90;;;;;;5015709;28;20125;-71
2021/11/03 08:05:55;;;;;;;20.65;4.80;;;17.40;99.90;;;;;;5026708;28;20117;-70
2021/11/03 08:08:24;;;;;;;19.30;3.92;;;17.50;99.90;;;;;;5016196;28;20479;-71
2021/11/03 08:10:53;;;;;;;34.97;4.18;;;17.60;99.90;;;;;;5025852;28;20045;-71
2021/11/03 08:13:22;;;;;;;19.25;4.22;;;17.50;99.90;;;;;;5033088;28;20452;-71
2021/11/03 08:15:51;;;;;;;18.80;3.92;;;17.40;99.90;;;;;;5030514;28;20033;-71
2021/11/03 08:18:22;;;;;;;27.60;3.88;;;17.50;99.90;;;;;;5033327;28;20063;-71
2021/11/03 08:20:48;;;;;;;19.13;3.65;;;17.50;99.90;;;;;;5034037;28;20038;-71
2021/11/03 08:23:15;;;;;;;16.48;3.45;;;17.50;99.90;;;;;;5032702;28;20048;-70
2021/11/03 08:25:41;;;;;;;15.88;2.88;;;17.70;99.90;;;;;;5034118;28;20075;-71
2021/11/03 08:28:08;;;;;;;20.02;3.70;;;18.10;99.90;;;;;;5033902;28;20497;-71
2021/11/03 08:30:34;;;;;;;17.02;3.00;;;18.30;99.90;;;;;;5033840;28;20119;-71
2021/11/03 08:33:06;;;;;;;22.27;3.85;;;18.20;99.90;;;;;;5033476;28;20021;-71
2021/11/03 08:35:34;;;;;;;17.63;2.95;;;18.00;99.90;;;;;;5034107;28;20584;-71
2021/11/03 08:38:04;;;;;;;17.13;3.22;;;17.80;99.90;;;;;;5033639;28;20037;-71
2021/11/03 08:40:32;;;;;;;18.73;3.28;;;17.70;99.90;;;;;;5034042;28;20387;-70
2021/11/03 08:43:00;;;;;;;20.73;2.67;;;17.50;99.90;;;;;;5033940;28;20030;-71
2021/11/03 08:45:27;;;;;;;19.65;3.28;;;17.60;99.90;;;;;;5016090;28;20033;-71
2021/11/03 08:47:53;;;;;;;30.83;4.07;;;17.70;99.90;;;;;;5034056;28;20095;-71
2021/11/03 08:50:23;;;;;;;13.80;2.92;;;17.70;99.90;;;;;;5033928;28;20041;-71
2021/11/03 08:52:49;;;;;;;21.63;3.60;;;17.70;99.90;;;;;;5015862;28;20433;-72
2021/11/03 08:55:15;;;;;;;17.65;2.88;;;17.80;99.90;;;;;;5033862;28;20038;-72
2021/11/03 08:57:42;;;;;;;18.02;3.13;;;17.60;99.90;;;;;;5033799;28;20554;-71
2021/11/03 09:00:23;;;;;;;25.05;3.30;;;17.50;99.90;;;;;;5032426;28;20034;-71
2021/11/03 09:02:49;;;;;;;17.83;2.70;;;17.60;99.90;;;;;;5032720;28;20025;-71
2021/11/03 09:05:15;;;;;;;11.07;3.28;;;19.00;99.90;;;;;;5033035;28;20152;-71
2021/11/03 09:07:41;;;;;;;22.23;3.10;;;20.80;99.90;;;;;;5015315;28;20029;-71
2021/11/03 09:10:11;;;;;;;13.60;2.28;;;21.20;99.90;;;;;;5032518;28;20418;-71
2021/11/03 09:12:38;;;;;;;17.33;3.33;;;20.70;99.90;;;;;;5032167;28;20018;-71
2021/11/03 09:15:05;;;;;;;14.45;2.58;;;20.20;99.90;;;;;;5032671;28;20547;-71
2021/11/03 09:17:31;;;;;;;28.05;3.13;;;19.70;99.90;;;;;;5032009;28;20026;-71
2021/11/03 09:19:57;;;;;;;16.80;2.78;;;19.40;99.90;;;;;;5032388;28;20034;-70
2021/11/03 09:22:23;;;;;;;18.17;3.10;;;19.10;99.90;;;;;;5032161;28;20033;-71
2021/11/03 09:24:49;;;;;;;16.88;3.25;;;18.80;99.90;;;;;;5031393;28;20049;-71
2021/11/03 09:27:15;;;;;;;11.15;2.33;;;18.50;99.90;;;;;;5030704;28;20058;-71
2021/11/03 09:29:50;;;;;;;15.07;2.53;;;18.30;99.90;;;;;;5031773;28;20597;-70
2021/11/03 09:32:19;;;;;;;16.42;2.40;;;18.30;99.90;;;;;;5031311;28;20040;-70
2021/11/03 09:34:46;;;;;;;10.07;2.40;;;18.30;99.90;;;;;;5031157;28;20021;-71
2021/11/03 09:37:18;;;;;;;21.38;2.78;;;18.30;99.90;;;;;;5031387;28;20049;-70
2021/11/03 09:39:49;;;;;;;15.75;3.22;;;18.30;99.90;;;;;;5032214;28;20041;-71
2021/11/03 09:42:16;;;;;;;22.73;3.38;;;18.30;99.90;;;;;;5032083;28;20034;-71
2021/11/03 09:44:44;;;;;;;22.27;2.90;;;18.20;99.90;;;;;;5032400;28;20017;-71
2021/11/03 09:47:13;;;;;;;11.68;2.58;;;18.20;99.90;;;;;;5031213;28;20108;-71
2021/11/03 09:49:42;;;;;;;17.83;2.70;;;18.10;99.90;;;;;;5011442;28;20050;-70
2021/11/03 09:52:20;;;;;;;16.90;3.38;;;18.00;99.90;;;;;;5031276;28;20040;-70
2021/11/03 09:54:52;;;;;;;15.27;2.42;;;18.00;99.90;;;;;;5031176;28;20087;-71
2021/11/03 09:57:31;;;;;;;19.67;3.17;;;17.90;99.90;;;;;;5031606;28;20121;-71
2021/11/03 10:00:19;;;;;;;16.75;2.92;;;17.80;99.90;;;;;;5030659;28;20029;-71
2021/11/03 10:02:53;;;;;;;19.80;2.63;;;17.70;99.90;;;;;;5028668;28;20037;-70
2021/11/03 10:05:27;;;;;;;17.73;2.45;;;17.70;99.90;;;;;;5030425;28;20029;-70
2021/11/03 10:08:10;;;;;;;14.38;2.85;;;17.60;99.90;;;;;;5030448;28;20108;-70
2021/11/03 10:10:42;;;;;;;15.00;3.58;;;17.60;99.90;;;;;;5030970;28;20082;-70
2021/11/03 10:13:19;;;;;;;14.45;2.10;;;17.40;99.90;;;;;;5031519;28;20022;-71
2021/11/03 10:16:01;;;;;;;14.38;3.00;;;17.40;99.90;;;;;;5029278;28;20052;-71
2021/11/03 10:18:30;;;;;;;16.50;3.35;;;17.40;99.90;;;;;;5031469;28;20041;-70
2021/11/03 10:21:18;;;;;;;20.10;3.03;;;17.40;99.90;;;;;;5031714;28;20036;-70
2021/11/03 10:23:59;;;;;;;11.45;2.65;;;17.50;99.90;;;;;;5007614;28;20042;-71
2021/11/03 10:26:28;;;;;;;15.57;2.70;;;17.40;99.90;;;;;;4942571;28;2532478;-71
2021/11/03 10:29:41;;;;;;;17.55;3.03;;;17.40;99.90;;;;;;5012956;28;20045;-71
2021/11/03 10:32:06;;;;;;;18.55;2.90;;;17.40;99.90;;;;;;4993872;28;20557;-70
2021/11/03 10:34:35;;;;;;;22.27;2.20;;;17.40;99.90;;;;;;5031239;28;20116;-70
2021/11/03 10:37:18;;;;;;;15.07;2.75;;;17.30;99.90;;;;;;5031490;28;20041;-70
2021/11/03 10:39:55;;;;;;;11.65;2.72;;;17.40;99.90;;;;;;5012063;28;20125;-71
2021/11/03 10:42:28;;;;;;;17.58;2.95;;;17.40;99.90;;;;;;5030843;28;20029;-70
2021/11/03 10:45:22;;;;;;;18.00;2.92;;;17.40;99.90;;;;;;5013377;28;20525;-70
2021/11/03 10:48:06;;;;;;;21.80;2.80;;;17.40;99.90;;;;;;5022362;28;20047;-70
2021/11/03 10:50:36;;;;;;;17.35;3.35;;;17.40;99.90;;;;;;5031315;28;20060;-70
2021/11/03 10:53:17;;;;;;;14.90;2.83;;;17.50;99.90;;;;;;5030796;28;20021;-71
2021/11/03 10:55:48;;;;;;;10.77;2.17;;;17.50;99.90;;;;;;5029325;28;20029;-71
2021/11/03 10:58:14;;;;;;;10.83;3.10;;;17.60;99.90;;;;;;5028841;28;20429;-72
2021/11/03 11:00:58;;;;;;;17.38;2.70;;;17.60;99.90;;;;;;5030956;28;20026;-72
2021/11/03 11:03:34;;;;;;;17.45;2.88;;;17.60;99.90;;;;;;5029859;28;20048;-72
2021/11/03 11:06:15;;;;;;;20.10;2.88;;;17.60;99.90;;;;;;5031840;28;20052;-71
2021/11/03 11:09:25;;;;;;;17.45;3.08;;;17.60;99.90;;;;;;5030665;28;20030;-71
2021/11/03 11:11:55;;;;;;;17.25;3.67;;;17.60;99.90;;;;;;5027225;28;20152;-71
2021/11/03 11:14:24;;;;;;;14.68;3.67;;;17.60;99.90;;;;;;5031913;28;20034;-71
2021/11/03 11:17:12;;;;;;;10.32;2.50;;;17.60;99.90;;;;;;5031598;28;20036;-70
2021/11/03 11:19:56;;;;;;;12.20;2.58;;;17.60;99.90;;;;;;5032135;28;20546;-71
2021/11/03 11:22:37;;;;;;;9.23;2.50;;;17.60;99.90;;;;;;5027891;28;20393;-71
2021/11/03 11:25:10;;;;;;;12.73;2.90;;;17.60;99.90;;;;;;5017609;28;20033;-71
2021/11/03 11:28:01;;;;;;;21.10;3.30;;;17.60;99.90;;;;;;5035389;28;20099;-71
2021/11/03 11:31:00;;;;;;;18.05;3.20;;;17.60;99.90;;;;;;5034695;28;20046;-71
2021/11/03 11:33:51;;;;;;;19.70;3.50;;;17.70;99.90;;;;;;5035115;28;20037;-71
2021/11/03 11:36:28;;;;;;;16.92;3.00;;;17.80;99.90;;;;;;5034798;28;20033;-71
2021/11/03 11:39:22;;;;;;;20.25;3.42;;;17.70;99.90;;;;;;5017758;28;20029;-70
2021/11/03 11:42:25;;;;;;;18.60;3.75;;;17.70;99.90;;;;;;5042985;28;20049;-71
2021/11/03 11:45:11;;;;;;;13.77;2.50;;;17.70;99.90;;;;;;5037254;28;20063;-71
2021/11/03 11:47:42;;;;;;;17.85;2.78;;;17.70;99.90;;;;;;5021917;28;20025;-70
2021/11/03 11:50:47;;;;;;;19.63;2.90;;;17.80;99.90;;;;;;5036348;28;20037;-71
2021/11/03 11:53:33;;;;;;;14.30;2.47;;;17.70;99.90;;;;;;5028435;28;20413;-70
2021/11/03 11:56:10;;;;;;;14.07;2.60;;;17.80;99.90;;;;;;5035994;28;20098;-71
2021/11/03 11:58:38;;;;;;;12.23;2.80;;;17.80;99.90;;;;;;5035627;28;20032;-71
2021/11/03 12:01:12;;;;;;;19.88;2.60;;;17.70;99.90;;;;;;5035534;28;20029;-70
2021/11/03 12:03:46;;;;;;;18.83;3.67;;;17.80;99.90;;;;;;5035851;28;20051;-71
2021/11/03 12:06:12;;;;;;;18.38;3.83;;;17.80;99.90;;;;;;5036447;28;20079;-71
2021/11/03 12:09:01;;;;;;;10.90;3.20;;;17.80;99.90;;;;;;5035183;28;20107;-71
2021/11/03 12:11:44;;;;;;;19.83;4.10;;;17.80;99.90;;;;;;5035194;28;20463;-71
2021/11/03 12:14:31;;;;;;;16.23;2.97;;;17.80;99.90;;;;;;5017608;28;20116;-71
2021/11/03 12:17:15;;;;;;;21.55;3.10;;;17.80;99.90;;;;;;5034131;28;20386;-71
2021/11/03 12:19:56;;;;;;;13.20;3.60;;;17.80;99.90;;;;;;5027902;28;20025;-71
2021/11/03 12:22:31;;;;;;;26.03;4.50;;;17.80;99.90;;;;;;5017738;28;20067;-70
2021/11/03 12:25:17;;;;;;;16.13;3.30;;;17.80;99.90;;;;;;5035292;28;20079;-70
2021/11/03 12:27:45;;;;;;;25.02;4.13;;;17.70;99.90;;;;;;5035159;28;20053;-71
2021/11/03 12:30:18;;;;;;;19.42;3.67;;;17.70;99.90;;;;;;5017061;28;20051;-70
2021/11/03 12:32:44;;;;;;;25.40;3.88;;;17.60;99.90;;;;;;5017207;28;20363;-71
2021/11/03 12:35:19;;;;;;;25.15;3.33;;;17.60;99.90;;;;;;5035509;28;20069;-71
2021/11/03 12:37:50;;;;;;;29.73;4.65;;;17.60;99.90;;;;;;5022445;28;20061;-70
2021/11/03 12:40:28;;;;;;;22.05;3.67;;;17.60;99.90;;;;;;5017214;28;20025;-71
2021/11/03 12:43:16;;;;;;;23.33;3.78;;;17.60;99.90;;;;;;5034924;28;20492;-71
2021/11/03 12:45:51;;;;;;;21.48;3.70;;;17.60;99.90;;;;;;5027421;28;20040;-70
2021/11/03 12:48:23;;;;;;;27.90;5.10;;;17.60;99.90;;;;;;5034503;28;20029;-70
2021/11/03 12:50:50;;;;;;;28.92;4.20;;;17.50;99.90;;;;;;5035030;28;20129;-70